Time,TemperatureF,DewpointF,PressureIn,WindDirection,WindDirectionDegrees,WindSpeedMPH,WindSpeedGustMPH,Humidity,HourlyPrecipIn,Conditions,Clouds,dailyrainin,SolarRadiationWatts/m^2,SoftwareType,DateUTC
2013-09-28 00:03:00,65.6,50.9,29.89,South,172,12.7,12.7,59,0.00,CLR,BKN,0.00,0.0,WeatherDisplay:10.37,2013-09-28 05:03:00,
2013-09-28 00:09:00,65.6,50.9,29.89,South,187,17.3,17.3,59,0.00,CLR,BKN,0.00,0.0,WeatherDisplay:10.37,2013-09-28 05:09:00,
2013-09-28 00:14:00,65.6,50.9,29.89,SSE,147,16.1,16.1,59,0.00,CLR,BKN,0.00,0.0,WeatherDisplay:10.37,2013-09-28 05:14:00,
2013-09-28 00:19:00,65.6,50.9,29.88,South,175,14.0,14.0,59,0.00,CLR,BKN,0.00,0.0,WeatherDisplay:10.37,2013-09-28 05:19:00,
2013-09-28 00:24:00,65.6,50.9,29.88,SSE,152,18.4,18.4,59,0.00,CLR,BKN,0.00,0.0,WeatherDisplay:10.37,2013-09-28 05:24:00,
2013-09-28 00:29:00,65.5,50.8,29.88,SSE,147,16.1,16.1,59,0.00,CLR,BKN,0.00,0.0,WeatherDisplay:10.37,2013-09-28 05:29:00,
2013-09-28 00:34:00,65.5,50.8,29.88,South,175,17.3,17.3,59,0.00,CLR,BKN,0.00,0.0,WeatherDisplay:10.37,2013-09-28 05:34:00,
2013-09-28 00:39:00,65.3,51.1,29.87,South,173,18.4,18.4,60,0.00,CLR,BKN,0.00,0.0,WeatherDisplay:10.37,2013-09-28 05:39:00,
2013-09-28 00:44:00,65.3,51.1,29.88,South,170,10.0,20.0,60,0.00,CLR,BKN,0.00,0.0,WeatherDisplay:10.37,2013-09-28 05:44:00,
2013-09-28 00:49:00,65.2,51.0,29.87,South,181,20.7,20.7,60,0.00,CLR,BKN,0.00,0.0,WeatherDisplay:10.37,2013-09-28 05:49:00,
2013-09-28 00:55:00,65.0,50.8,29.87,South,174,24.2,24.2,60,0.00,CLR,BKN,0.00,0.0,WeatherDisplay:10.37,2013-09-28 05:55:00,
2013-09-28 01:00:00,65.0,51.2,29.87,SSE,158,18.4,18.4,61,0.00,CLR,BKN,0.00,0.0,WeatherDisplay:10.37,2013-09-28 06:00:00,
2013-09-28 01:05:00,65.0,51.2,29.87,SSE,160,19.6,19.6,61,0.00,CLR,BKN,0.00,0.0,WeatherDisplay:10.37,2013-09-28 06:05:00,
2013-09-28 01:10:00,64.8,51.0,29.87,SE,146,20.7,20.7,61,0.00,CLR,BKN,0.00,0.0,WeatherDisplay:10.37,2013-09-28 06:10:00,
2013-09-28 01:15:00,64.8,51.0,29.87,South,178,18.4,18.4,61,0.00,CLR,BKN,0.00,0.0,WeatherDisplay:10.37,2013-09-28 06:15:00,
2013-09-28 01:20:00,64.8,51.0,29.87,South,169,24.2,24.2,61,0.00,CLR,BKN,0.00,0.0,WeatherDisplay:10.37,2013-09-28 06:20:00,
2013-09-28 01:25:00,64.7,51.4,29.87,South,177,15.0,15.0,62,0.00,CLR,BKN,0.00,0.0,WeatherDisplay:10.37,2013-09-28 06:25:00,
2013-09-28 01:31:00,64.5,51.2,29.87,South,177,18.4,18.4,62,0.00,CLR,BKN,0.00,0.0,WeatherDisplay:10.37,2013-09-28 06:31:00,
2013-09-28 01:36:00,64.5,51.6,29.87,South,173,20.0,20.0,63,0.00,CLR,BKN,0.00,0.0,WeatherDisplay:10.37,2013-09-28 06:36:00,
2013-09-28 01:41:00,64.3,51.4,29.86,South,178,23.0,23.0,63,0.00,CLR,BKN,0.00,0.0,WeatherDisplay:10.37,2013-09-28 06:41:00,
2013-09-28 01:46:00,64.2,51.3,29.86,SSE,167,19.6,19.6,63,0.00,CLR,BKN,0.00,0.0,WeatherDisplay:10.37,2013-09-28 06:46:00,
2013-09-28 01:51:00,64.0,51.6,29.86,SSE,148,20.7,20.7,64,0.00,CLR,BKN,0.00,0.0,WeatherDisplay:10.37,2013-09-28 06:51:00,
2013-09-28 01:56:00,64.0,51.6,29.86,SSW,202,17.0,17.0,64,0.00,CLR,BKN,0.00,0.0,WeatherDisplay:10.37,2013-09-28 06:56:00,
2013-09-28 02:01:00,63.9,51.5,29.86,South,171,21.9,21.9,64,0.00,CLR,BKN,0.00,0.0,WeatherDisplay:10.37,2013-09-28 07:01:00,
2013-09-28 02:06:00,63.7,51.7,29.86,South,180,16.1,16.1,65,0.00,CLR,BKN,0.00,0.0,WeatherDisplay:10.37,2013-09-28 07:06:00,
2013-09-28 02:12:00,63.5,51.5,29.86,SSE,149,16.1,16.1,65,0.00,CLR,BKN,0.00,0.0,WeatherDisplay:10.37,2013-09-28 07:12:00,
2013-09-28 02:17:00,63.4,51.4,29.86,South,170,18.4,18.4,65,0.00,CLR,BKN,0.00,0.0,WeatherDisplay:10.37,2013-09-28 07:17:00,
2013-09-28 02:22:00,63.2,51.2,29.86,SSE,163,19.0,19.0,65,0.00,CLR,BKN,0.00,0.0,WeatherDisplay:10.37,2013-09-28 07:22:00,
2013-09-28 02:27:00,63.2,51.2,29.86,SSE,152,17.3,17.3,65,0.00,CLR,BKN,0.00,0.0,WeatherDisplay:10.37,2013-09-28 07:27:00,
2013-09-28 02:32:00,63.1,51.6,29.86,SSE,153,12.7,12.7,66,0.00,CLR,BKN,0.00,0.0,WeatherDisplay:10.37,2013-09-28 07:32:00,
2013-09-28 02:37:00,62.9,51.4,29.85,South,182,18.4,18.4,66,0.00,CLR,BKN,0.00,0.0,WeatherDisplay:10.37,2013-09-28 07:37:00,
2013-09-28 02:42:00,62.9,51.8,29.85,South,175,13.0,13.0,67,0.00,CLR,BKN,0.00,0.0,WeatherDisplay:10.37,2013-09-28 07:42:00,
2013-09-28 02:48:00,62.7,51.2,29.85,SSE,163,15.0,15.0,66,0.00,CLR,BKN,0.00,0.0,WeatherDisplay:10.37,2013-09-28 07:48:00,
2013-09-28 02:53:00,62.6,51.5,29.84,SSE,161,18.4,18.4,67,0.00,CLR,BKN,0.00,0.0,WeatherDisplay:10.37,2013-09-28 07:53:00,
2013-09-28 02:58:00,62.4,51.3,29.84,SSE,167,15.0,15.0,67,0.00,CLR,BKN,0.00,0.0,WeatherDisplay:10.37,2013-09-28 07:58:00,
2013-09-28 03:03:00,62.4,51.3,29.84,South,170,15.0,15.0,67,0.00,CLR,BKN,0.00,0.0,WeatherDisplay:10.37,2013-09-28 08:03:00,
2013-09-28 03:08:00,62.3,51.2,29.84,South,173,12.7,12.7,67,0.00,CLR,BKN,0.00,0.0,WeatherDisplay:10.37,2013-09-28 08:08:00,
2013-09-28 03:13:00,62.3,51.6,29.84,SSE,150,13.8,13.8,68,0.00,CLR,BKN,0.00,0.0,WeatherDisplay:10.37,2013-09-28 08:13:00,
2013-09-28 03:18:00,62.1,51.4,29.84,South,184,14.0,14.0,68,0.00,CLR,BKN,0.00,0.0,WeatherDisplay:10.37,2013-09-28 08:18:00,
2013-09-28 03:23:00,62.1,51.4,29.84,South,177,12.7,12.7,68,0.00,CLR,BKN,0.00,0.0,WeatherDisplay:10.37,2013-09-28 08:23:00,
2013-09-28 03:29:00,62.0,51.3,29.84,SSE,165,13.8,13.8,68,0.00,CLR,BKN,0.00,0.0,WeatherDisplay:10.37,2013-09-28 08:29:00,
2013-09-28 03:34:00,61.8,51.5,29.83,SSE,161,15.0,15.0,69,0.00,CLR,BKN,0.00,0.0,WeatherDisplay:10.37,2013-09-28 08:34:00,
2013-09-28 03:39:00,61.6,51.3,29.83,SSE,154,17.0,17.0,69,0.00,CLR,BKN,0.00,0.0,WeatherDisplay:10.37,2013-09-28 08:39:00,
2013-09-28 03:44:00,61.6,51.7,29.83,SSE,163,16.1,16.1,70,0.00,CLR,BKN,0.00,0.0,WeatherDisplay:10.37,2013-09-28 08:44:00,
2013-09-28 03:49:00,61.5,51.6,29.83,SE,144,19.6,19.6,70,0.00,CLR,BKN,0.00,0.0,WeatherDisplay:10.37,2013-09-28 08:49:00,
2013-09-28 03:54:00,61.3,51.8,29.83,South,181,13.8,13.8,71,0.00,CLR,BKN,0.00,0.0,WeatherDisplay:10.37,2013-09-28 08:54:00,
2013-09-28 03:59:00,61.3,51.8,29.83,South,185,17.3,17.3,71,0.00,CLR,BKN,0.00,0.0,WeatherDisplay:10.37,2013-09-28 08:59:00,
2013-09-28 04:04:00,61.2,51.7,29.84,South,172,10.0,20.0,71,0.00,CLR,BKN,0.00,0.0,WeatherDisplay:10.37,2013-09-28 09:04:00,
2013-09-28 04:09:00,61.2,51.7,29.83,SSE,151,12.0,12.0,71,0.00,CLR,BKN,0.00,0.0,WeatherDisplay:10.37,2013-09-28 09:09:00,
2013-09-28 04:14:00,61.0,51.9,29.83,SSE,163,10.0,18.0,72,0.00,CLR,BKN,0.00,0.0,WeatherDisplay:10.37,2013-09-28 09:14:00,
2013-09-28 04:19:00,61.0,51.9,29.83,SSE,168,17.3,17.3,72,0.00,CLR,BKN,0.00,0.0,WeatherDisplay:10.37,2013-09-28 09:19:00,
2013-09-28 04:25:00,60.9,51.8,29.83,SSE,164,10.4,10.4,72,0.00,CLR,BKN,0.00,0.0,WeatherDisplay:10.37,2013-09-28 09:25:00,
2013-09-28 04:30:00,60.7,51.6,29.82,SSE,158,19.6,19.6,72,0.00,CLR,BKN,0.00,0.0,WeatherDisplay:10.37,2013-09-28 09:30:00,
2013-09-28 04:35:00,60.7,51.6,29.82,SSE,165,16.1,16.1,72,0.00,CLR,BKN,0.00,0.0,WeatherDisplay:10.37,2013-09-28 09:35:00,
2013-09-28 04:40:00,60.5,51.8,29.82,South,179,19.6,19.6,73,0.00,CLR,BKN,0.00,0.0,WeatherDisplay:10.37,2013-09-28 09:40:00,
2013-09-28 04:45:00,60.5,51.8,29.82,SSE,167,17.3,17.3,73,0.00,CLR,BKN,0.00,0.0,WeatherDisplay:10.37,2013-09-28 09:45:00,
2013-09-28 04:50:00,60.4,51.7,29.82,SSE,152,19.6,19.6,73,0.00,CLR,BKN,0.00,0.0,WeatherDisplay:10.37,2013-09-28 09:50:00,
2013-09-28 04:55:00,60.4,51.7,29.82,South,174,19.6,19.6,73,0.00,CLR,BKN,0.00,0.0,WeatherDisplay:10.37,2013-09-28 09:55:00,
2013-09-28 05:01:00,60.4,51.7,29.82,SE,135,18.4,18.4,73,0.00,CLR,BKN,0.00,0.0,WeatherDisplay:10.37,2013-09-28 10:01:00,
2013-09-28 05:06:00,60.2,51.5,29.81,South,173,17.3,17.3,73,0.00,CLR,BKN,0.00,0.0,WeatherDisplay:10.37,2013-09-28 10:06:00,
2013-09-28 05:11:00,60.2,51.5,29.81,SSE,158,19.6,19.6,73,0.00,CLR,BKN,0.00,0.0,WeatherDisplay:10.37,2013-09-28 10:11:00,
2013-09-28 05:16:00,60.1,51.4,29.81,SE,142,19.6,19.6,73,0.00,CLR,BKN,0.00,0.0,WeatherDisplay:10.37,2013-09-28 10:16:00,
2013-09-28 05:21:00,60.1,51.4,29.81,SSE,163,18.4,18.4,73,0.00,CLR,BKN,0.00,0.0,WeatherDisplay:10.37,2013-09-28 10:21:00,
2013-09-28 05:26:00,60.1,51.4,29.81,SSE,148,18.0,18.0,73,0.00,CLR,BKN,0.00,0.0,WeatherDisplay:10.37,2013-09-28 10:26:00,
2013-09-28 05:31:00,60.1,51.4,29.80,South,183,19.6,19.6,73,0.00,CLR,BKN,0.00,0.0,WeatherDisplay:10.37,2013-09-28 10:31:00,
2013-09-28 05:36:00,60.1,51.4,29.80,SE,125,16.1,16.1,73,0.00,CLR,BKN,0.00,0.0,WeatherDisplay:10.37,2013-09-28 10:36:00,
2013-09-28 05:42:00,59.9,51.2,29.80,South,185,19.6,19.6,73,0.00,CLR,BKN,0.00,0.0,WeatherDisplay:10.37,2013-09-28 10:42:00,
2013-09-28 05:47:00,59.9,51.2,29.80,South,169,20.7,20.7,73,0.00,CLR,BKN,0.00,0.0,WeatherDisplay:10.37,2013-09-28 10:47:00,
2013-09-28 05:52:00,59.9,51.2,29.80,SSE,156,19.0,19.0,73,0.00,CLR,BKN,0.00,0.0,WeatherDisplay:10.37,2013-09-28 10:52:00,
2013-09-28 05:57:00,59.9,51.2,29.80,SSE,151,20.7,20.7,73,0.00,CLR,BKN,0.00,0.0,WeatherDisplay:10.37,2013-09-28 10:57:00,
2013-09-28 06:02:00,59.9,51.2,29.80,South,180,15.0,15.0,73,0.00,CLR,BKN,0.00,0.0,WeatherDisplay:10.37,2013-09-28 11:02:00,
2013-09-28 06:07:00,59.8,51.1,29.80,SSE,154,13.8,13.8,73,0.00,CLR,BKN,0.00,0.0,WeatherDisplay:10.37,2013-09-28 11:07:00,
2013-09-28 06:12:00,59.8,51.1,29.80,South,174,17.3,17.3,73,0.00,CLR,BKN,0.00,0.0,WeatherDisplay:10.37,2013-09-28 11:12:00,
2013-09-28 06:18:00,59.6,51.3,29.80,SSE,156,16.1,16.1,74,0.00,CLR,BKN,0.00,0.0,WeatherDisplay:10.37,2013-09-28 11:18:00,
2013-09-28 06:23:00,59.6,50.9,29.80,SSW,199,12.7,12.7,73,0.00,CLR,BKN,0.00,0.0,WeatherDisplay:10.37,2013-09-28 11:23:00,
2013-09-28 06:28:00,59.6,50.9,29.80,SSW,194,15.0,15.0,73,0.00,CLR,BKN,0.00,0.0,WeatherDisplay:10.37,2013-09-28 11:28:00,
2013-09-28 06:33:00,59.8,51.1,29.80,SSE,150,13.0,13.0,73,0.00,CLR,BKN,0.00,0.0,WeatherDisplay:10.37,2013-09-28 11:33:00,
2013-09-28 06:39:00,59.8,51.1,29.80,SSE,156,18.4,18.4,73,0.00,CLR,BKN,0.00,0.0,WeatherDisplay:10.37,2013-09-28 11:39:00,
2013-09-28 06:44:00,59.9,50.8,29.80,SSE,150,18.4,18.4,72,0.00,CLR,BKN,0.00,0.0,WeatherDisplay:10.37,2013-09-28 11:44:00,
2013-09-28 06:49:00,59.9,51.2,29.80,SSE,157,18.4,18.4,73,0.00,CLR,BKN,0.00,0.0,WeatherDisplay:10.37,2013-09-28 11:49:00,
2013-09-28 06:54:00,59.9,50.8,29.80,SSE,159,17.3,17.3,72,0.00,CLR,BKN,0.00,0.0,WeatherDisplay:10.37,2013-09-28 11:54:00,
2013-09-28 06:59:00,59.9,50.8,29.79,SSE,156,17.3,17.3,72,0.00,CLR,BKN,0.00,0.0,WeatherDisplay:10.37,2013-09-28 11:59:00,
2013-09-28 07:04:00,59.8,51.1,29.79,SSE,148,19.6,19.6,73,0.00,CLR,BKN,0.00,0.0,WeatherDisplay:10.37,2013-09-28 12:04:00,
2013-09-28 07:09:00,59.8,50.8,29.79,SSE,154,17.3,17.3,72,0.00,CLR,BKN,0.00,0.0,WeatherDisplay:10.37,2013-09-28 12:09:00,
2013-09-28 07:14:00,59.8,50.8,29.79,SSE,158,9.0,25.0,72,0.00,CLR,BKN,0.00,0.0,WeatherDisplay:10.37,2013-09-28 12:14:00,
2013-09-28 07:19:00,59.8,50.8,29.78,SSE,155,12.0,20.0,72,0.00,CLR,BKN,0.00,0.0,WeatherDisplay:10.37,2013-09-28 12:19:00,
2013-09-28 07:24:00,59.8,51.1,29.78,SE,138,16.1,16.1,73,0.00,CLR,BKN,0.00,0.0,WeatherDisplay:10.37,2013-09-28 12:24:00,
2013-09-28 07:29:00,59.6,50.9,29.78,SSE,166,12.0,18.0,73,0.00,CLR,BKN,0.00,0.0,WeatherDisplay:10.37,2013-09-28 12:29:00,
2013-09-28 07:35:00,59.8,51.1,29.78,SSE,156,17.3,17.3,73,0.00,CLR,BKN,0.00,0.0,WeatherDisplay:10.37,2013-09-28 12:35:00,
2013-09-28 07:40:00,59.8,51.1,29.77,SE,140,18.4,18.4,73,0.00,CLR,BKN,0.00,0.0,WeatherDisplay:10.37,2013-09-28 12:40:00,
2013-09-28 07:45:00,59.9,51.2,29.77,SSE,153,11.5,11.5,73,0.00,CLR,BKN,0.00,0.0,WeatherDisplay:10.37,2013-09-28 12:45:00,
2013-09-28 07:50:00,60.1,51.4,29.77,South,169,15.0,15.0,73,0.00,CLR,BKN,0.00,0.0,WeatherDisplay:10.37,2013-09-28 12:50:00,
2013-09-28 07:55:00,60.1,51.4,29.77,South,182,16.1,16.1,73,0.00,CLR,BKN,0.00,0.0,WeatherDisplay:10.37,2013-09-28 12:55:00,
2013-09-28 08:00:00,60.2,51.5,29.76,SSE,163,13.8,13.8,73,0.00,OVC,BKN,0.00,0.0,WeatherDisplay:10.37,2013-09-28 13:00:00,
2013-09-28 08:05:00,60.4,51.7,29.76,SSE,162,16.1,16.1,73,0.00,OVC,BKN,0.00,0.0,WeatherDisplay:10.37,2013-09-28 13:05:00,
2013-09-28 08:10:00,60.4,51.7,29.76,SSE,158,18.4,18.4,73,0.00,OVC,BKN,0.00,0.0,WeatherDisplay:10.37,2013-09-28 13:10:00,
2013-09-28 08:16:00,60.5,52.2,29.76,SE,133,18.4,18.4,74,0.00,OVC,BKN,0.00,0.0,WeatherDisplay:10.37,2013-09-28 13:16:00,
2013-09-28 08:21:00,60.5,52.2,29.76,SSE,160,15.0,15.0,74,0.00,OVC,BKN,0.00,0.0,WeatherDisplay:10.37,2013-09-28 13:21:00,
2013-09-28 08:26:00,60.9,52.6,29.76,SSE,160,12.7,12.7,74,0.00,OVC,BKN,0.00,0.0,WeatherDisplay:10.37,2013-09-28 13:26:00,
2013-09-28 08:31:00,61.0,52.7,29.75,South,173,19.6,19.6,74,0.00,OVC,BKN,0.00,0.0,WeatherDisplay:10.37,2013-09-28 13:31:00,
2013-09-28 08:36:00,61.3,53.3,29.75,South,176,23.0,23.0,75,0.00,OVC,BKN,0.00,0.0,WeatherDisplay:10.37,2013-09-28 13:36:00,
2013-09-28 08:41:00,61.5,53.5,29.75,SSE,151,19.6,19.6,75,0.00,OVC,BKN,0.00,0.0,WeatherDisplay:10.37,2013-09-28 13:41:00,
2013-09-28 08:46:00,61.8,53.8,29.75,South,183,18.4,18.4,75,0.00,OVC,BKN,0.00,0.0,WeatherDisplay:10.37,2013-09-28 13:46:00,
2013-09-28 08:52:00,62.0,54.0,29.75,SSE,153,11.5,11.5,75,0.00,OVC,BKN,0.00,0.0,WeatherDisplay:10.37,2013-09-28 13:52:00,
2013-09-28 08:57:00,62.1,54.4,29.74,SE,125,20.7,20.7,76,0.00,OVC,BKN,0.00,0.0,WeatherDisplay:10.37,2013-09-28 13:57:00,
2013-09-28 09:02:00,62.3,54.6,29.74,SSE,151,22.0,22.0,76,0.00,OVC,BKN,0.00,0.0,WeatherDisplay:10.37,2013-09-28 14:02:00,
2013-09-28 09:07:00,62.6,54.9,29.74,SSE,156,23.0,23.0,76,0.00,OVC,BKN,0.00,0.0,WeatherDisplay:10.37,2013-09-28 14:07:00,
2013-09-28 09:12:00,63.1,55.4,29.73,SSE,156,26.5,26.5,76,0.00,OVC,BKN,0.00,0.0,WeatherDisplay:10.37,2013-09-28 14:12:00,
2013-09-28 09:17:00,63.7,55.6,29.73,SSE,152,20.7,20.7,75,0.00,OVC,BKN,0.00,0.0,WeatherDisplay:10.37,2013-09-28 14:17:00,
2013-09-28 09:22:00,64.0,55.5,29.72,SSE,156,17.3,17.3,74,0.00,OVC,BKN,0.00,0.0,WeatherDisplay:10.37,2013-09-28 14:22:00,
2013-09-28 09:27:00,64.5,56.0,29.72,SSE,167,27.6,27.6,74,0.00,OVC,BKN,0.00,0.0,WeatherDisplay:10.37,2013-09-28 14:27:00,
2013-09-28 09:33:00,64.7,55.8,29.72,SSE,163,23.0,23.0,73,0.00,OVC,BKN,0.00,0.0,WeatherDisplay:10.37,2013-09-28 14:33:00,
2013-09-28 09:38:00,64.8,55.9,29.72,South,178,25.3,25.3,73,0.00,OVC,BKN,0.00,0.0,WeatherDisplay:10.37,2013-09-28 14:38:00,
2013-09-28 09:43:00,64.8,55.9,29.72,SSE,164,24.2,24.2,73,0.00,OVC,BKN,0.00,0.0,WeatherDisplay:10.37,2013-09-28 14:43:00,
2013-09-28 09:48:00,65.0,56.1,29.71,South,184,24.2,24.2,73,0.00,OVC,BKN,0.00,0.0,WeatherDisplay:10.37,2013-09-28 14:48:00,
2013-09-28 09:53:00,65.2,56.7,29.71,SSE,159,25.3,25.3,74,0.00,OVC,BKN,0.00,0.0,WeatherDisplay:10.37,2013-09-28 14:53:00,
2013-09-28 09:58:00,65.3,56.8,29.71,SSE,160,33.4,33.4,74,0.00,OVC,BKN,0.00,0.0,WeatherDisplay:10.37,2013-09-28 14:58:00,
2013-09-28 10:03:00,65.6,57.1,29.70,South,171,21.9,21.9,74,0.00,OVC,BKN,0.00,0.0,WeatherDisplay:10.37,2013-09-28 15:03:00,
2013-09-28 10:09:00,65.8,56.9,29.70,South,177,26.5,26.5,73,0.00,OVC,BKN,0.00,0.0,WeatherDisplay:10.37,2013-09-28 15:09:00,
2013-09-28 10:14:00,66.1,57.2,29.68,SSE,148,32.0,32.0,73,0.00,OVC,BKN,0.00,0.0,WeatherDisplay:10.37,2013-09-28 15:14:00,
2013-09-28 10:19:00,66.4,57.5,29.68,South,175,20.7,20.7,73,0.00,OVC,BKN,0.00,0.0,WeatherDisplay:10.37,2013-09-28 15:19:00,
2013-09-28 10:24:00,66.8,57.5,29.68,SE,142,28.8,28.8,72,0.00,OVC,BKN,0.00,0.0,WeatherDisplay:10.37,2013-09-28 15:24:00,
2013-09-28 10:29:00,66.9,57.2,29.68,South,175,32.2,32.2,71,0.00,OVC,BKN,0.00,0.0,WeatherDisplay:10.37,2013-09-28 15:29:00,
2013-09-28 10:34:00,67.9,57.8,29.67,SE,146,26.5,26.5,70,0.00,OVC,BKN,0.00,0.0,WeatherDisplay:10.37,2013-09-28 15:34:00,
2013-09-28 10:39:00,68.6,57.6,29.67,SSE,153,21.0,21.0,68,0.00,OVC,BKN,0.00,0.0,WeatherDisplay:10.37,2013-09-28 15:39:00,
2013-09-28 10:44:00,69.1,58.1,29.67,South,169,17.0,26.0,68,0.00,OVC,BKN,0.00,0.0,WeatherDisplay:10.37,2013-09-28 15:44:00,
2013-09-28 10:49:00,69.3,57.9,29.67,South,170,20.0,36.0,67,0.00,OVC,BKN,0.00,0.0,WeatherDisplay:10.37,2013-09-28 15:49:00,
2013-09-28 10:54:00,69.6,58.2,29.67,South,177,19.6,19.6,67,0.00,OVC,BKN,0.00,0.0,WeatherDisplay:10.37,2013-09-28 15:54:00,
2013-09-28 11:00:00,69.6,57.7,29.67,SSE,157,23.0,23.0,66,0.00,OVC,BKN,0.00,0.0,WeatherDisplay:10.37,2013-09-28 16:00:00,
2013-09-28 11:05:00,69.1,58.1,29.66,South,178,24.2,24.2,68,0.00,OVC,BKN,0.00,0.0,WeatherDisplay:10.37,2013-09-28 16:05:00,
2013-09-28 11:10:00,69.1,57.7,29.65,SSE,154,31.1,31.1,67,0.00,OVC,BKN,0.00,0.0,WeatherDisplay:10.37,2013-09-28 16:10:00,
2013-09-28 11:15:00,69.8,58.3,29.65,South,181,27.6,27.6,67,0.00,OVC,BKN,0.00,0.0,WeatherDisplay:10.37,2013-09-28 16:15:00,
2013-09-28 11:20:00,70.4,58.5,29.64,SSE,160,25.3,25.3,66,0.00,OVC,BKN,0.00,0.0,WeatherDisplay:10.37,2013-09-28 16:20:00,
2013-09-28 11:25:00,70.9,58.5,29.63,SE,142,33.4,33.4,65,0.00,OVC,BKN,0.00,0.0,WeatherDisplay:10.37,2013-09-28 16:25:00,
2013-09-28 11:30:00,71.6,58.3,29.63,South,169,25.0,25.0,63,0.00,OVC,BKN,0.00,0.0,WeatherDisplay:10.37,2013-09-28 16:30:00,
2013-09-28 11:36:00,71.8,58.5,29.62,SSE,167,27.6,27.6,63,0.00,OVC,BKN,0.00,0.0,WeatherDisplay:10.37,2013-09-28 16:36:00,
2013-09-28 11:41:00,71.8,59.0,29.62,SSE,161,25.3,25.3,64,0.00,OVC,BKN,0.00,0.0,WeatherDisplay:10.37,2013-09-28 16:41:00,
2013-09-28 11:46:00,71.8,59.0,29.62,SSE,168,23.0,23.0,64,0.00,OVC,BKN,0.00,0.0,WeatherDisplay:10.37,2013-09-28 16:46:00,
2013-09-28 11:51:00,71.3,58.5,29.61,SSE,162,33.0,33.0,64,0.00,OVC,BKN,0.00,0.0,WeatherDisplay:10.37,2013-09-28 16:51:00,
2013-09-28 11:56:00,70.9,58.5,29.61,SSE,149,24.2,24.2,65,0.00,OVC,BKN,0.00,0.0,WeatherDisplay:10.37,2013-09-28 16:56:00,
2013-09-28 12:02:00,70.9,59.0,29.61,SSE,163,34.5,34.5,66,0.00,OVC,BKN,0.00,0.0,WeatherDisplay:10.37,2013-09-28 17:02:00,
2013-09-28 12:07:00,71.1,59.2,29.60,SSE,163,21.9,21.9,66,0.00,OVC,BKN,0.00,0.0,WeatherDisplay:10.37,2013-09-28 17:07:00,
2013-09-28 12:12:00,71.1,58.7,29.60,SSW,192,26.5,26.5,65,0.00,OVC,BKN,0.00,0.0,WeatherDisplay:10.37,2013-09-28 17:12:00,
2013-09-28 12:17:00,71.1,58.7,29.60,South,183,25.3,25.3,65,0.00,OVC,BKN,0.00,0.0,WeatherDisplay:10.37,2013-09-28 17:17:00,
2013-09-28 12:22:00,71.1,59.2,29.60,South,176,28.0,28.0,66,0.00,OVC,BKN,0.00,0.0,WeatherDisplay:10.37,2013-09-28 17:22:00,
2013-09-28 12:27:00,70.9,59.4,29.59,South,172,21.0,21.0,67,0.00,OVC,BKN,0.00,0.0,WeatherDisplay:10.37,2013-09-28 17:27:00,
2013-09-28 12:32:00,71.1,59.2,29.58,SSE,158,29.9,29.9,66,0.00,OVC,BKN,0.00,0.0,WeatherDisplay:10.37,2013-09-28 17:32:00,
2013-09-28 12:38:00,71.5,59.5,29.59,SSE,157,31.1,31.1,66,0.00,OVC,BKN,0.00,0.0,WeatherDisplay:10.37,2013-09-28 17:38:00,
2013-09-28 12:43:00,71.5,59.1,29.58,SSE,152,28.8,28.8,65,0.00,OVC,BKN,0.00,0.0,WeatherDisplay:10.37,2013-09-28 17:43:00,
2013-09-28 12:48:00,71.5,59.1,29.58,SSE,156,29.9,29.9,65,0.00,OVC,BKN,0.00,0.0,WeatherDisplay:10.37,2013-09-28 17:48:00,
2013-09-28 12:53:00,71.3,59.4,29.58,South,185,25.3,25.3,66,0.00,OVC,BKN,0.00,0.0,WeatherDisplay:10.37,2013-09-28 17:53:00,
2013-09-28 12:58:00,71.3,58.9,29.58,SSE,158,25.3,25.3,65,0.00,OVC,BKN,0.00,0.0,WeatherDisplay:10.37,2013-09-28 17:58:00,
2013-09-28 13:04:00,71.1,58.7,29.58,SSW,192,26.5,26.5,65,0.00,OVC,BKN,0.00,0.0,WeatherDisplay:10.37,2013-09-28 18:04:00,
2013-09-28 13:09:00,71.1,59.2,29.58,South,185,46.0,46.0,66,0.00,OVC,BKN,0.00,0.0,WeatherDisplay:10.37,2013-09-28 18:09:00,
2013-09-28 13:14:00,70.9,59.0,29.58,SSW,193,27.6,27.6,66,0.00,OVC,BKN,0.00,0.0,WeatherDisplay:10.37,2013-09-28 18:14:00,
2013-09-28 13:19:00,70.8,58.9,29.58,South,179,31.1,31.1,66,0.00,OVC,BKN,0.00,0.0,WeatherDisplay:10.37,2013-09-28 18:19:00,
2013-09-28 13:24:00,70.6,59.1,29.58,South,185,16.1,16.1,67,0.00,OVC,BKN,0.00,0.0,WeatherDisplay:10.37,2013-09-28 18:24:00,
2013-09-28 13:29:00,70.4,58.9,29.58,SW,223,25.3,25.3,67,0.00,OVC,BKN,0.00,0.0,WeatherDisplay:10.37,2013-09-28 18:29:00,
2013-09-28 13:34:00,70.3,61.2,29.58,SSE,167,31.1,31.1,73,0.00,OVC,BKN,0.00,0.0,WeatherDisplay:10.37,2013-09-28 18:34:00,
2013-09-28 13:39:00,69.8,61.1,29.58,SSW,202,28.8,28.8,74,0.00,OVC,BKN,0.00,0.0,WeatherDisplay:10.37,2013-09-28 18:39:00,
2013-09-28 13:45:00,69.1,61.6,29.58,SW,224,25.3,25.3,77,0.00,OVC,BKN,0.00,0.0,WeatherDisplay:10.37,2013-09-28 18:45:00,
2013-09-28 13:50:00,68.4,61.6,29.58,SSE,165,21.9,21.9,79,0.01,RA,BKN,0.01,0.0,WeatherDisplay:10.37,2013-09-28 18:50:00,
2013-09-28 13:55:00,67.6,61.2,29.58,South,182,27.6,27.6,80,0.01,RA,BKN,0.01,0.0,WeatherDisplay:10.37,2013-09-28 18:55:00,
2013-09-28 14:00:00,66.9,61.6,29.58,South,189,19.6,19.6,83,0.01,OVC,BKN,0.01,0.0,WeatherDisplay:10.37,2013-09-28 19:00:00,
2013-09-28 14:06:00,66.4,61.8,29.58,South,190,16.1,16.1,85,0.01,OVC,BKN,0.01,0.0,WeatherDisplay:10.37,2013-09-28 19:06:00,
2013-09-28 14:11:00,66.0,61.7,29.58,South,171,23.0,23.0,86,0.02,RA,BKN,0.02,0.0,WeatherDisplay:10.37,2013-09-28 19:11:00,
2013-09-28 14:16:00,65.5,61.5,29.58,South,180,19.6,19.6,87,0.02,RA,BKN,0.02,0.0,WeatherDisplay:10.37,2013-09-28 19:16:00,
2013-09-28 14:21:00,65.2,61.6,29.58,SSW,193,20.0,20.0,88,0.02,OVC,BKN,0.02,0.0,WeatherDisplay:10.37,2013-09-28 19:21:00,
2013-09-28 14:26:00,64.8,61.5,29.58,South,180,25.3,25.3,89,0.02,OVC,BKN,0.02,0.0,WeatherDisplay:10.37,2013-09-28 19:26:00,
2013-09-28 14:31:00,64.5,61.5,29.58,SSW,196,25.3,25.3,90,0.02,OVC,BKN,0.02,0.0,WeatherDisplay:10.37,2013-09-28 19:31:00,
2013-09-28 14:36:00,64.3,61.6,29.57,SSE,166,27.6,27.6,91,0.02,OVC,BKN,0.02,0.0,WeatherDisplay:10.37,2013-09-28 19:36:00,
2013-09-28 14:42:00,64.2,61.8,29.57,SW,221,26.5,26.5,92,0.03,RA,BKN,0.03,0.0,WeatherDisplay:10.37,2013-09-28 19:42:00,
2013-09-28 14:47:00,64.0,61.6,29.57,South,172,27.6,27.6,92,0.03,RA,BKN,0.03,0.0,WeatherDisplay:10.37,2013-09-28 19:47:00,
2013-09-28 14:52:00,63.9,61.5,29.57,SSW,193,26.5,26.5,92,0.03,RA,BKN,0.04,0.0,WeatherDisplay:10.37,2013-09-28 19:52:00,
2013-09-28 14:57:00,63.9,61.8,29.57,South,187,27.0,27.0,93,0.03,RA,BKN,0.04,0.0,WeatherDisplay:10.37,2013-09-28 19:57:00,
2013-09-28 15:02:00,63.7,61.6,29.57,SW,225,27.6,27.6,93,0.04,RA,BKN,0.05,0.0,WeatherDisplay:10.37,2013-09-28 20:02:00,
2013-09-28 15:07:00,63.7,61.9,29.58,South,179,23.0,23.0,94,0.03,RA,BKN,0.05,0.0,WeatherDisplay:10.37,2013-09-28 20:07:00,
2013-09-28 15:12:00,63.5,61.7,29.59,WSW,242,27.6,27.6,94,0.03,OVC,BKN,0.05,0.0,WeatherDisplay:10.37,2013-09-28 20:12:00,
2013-09-28 15:17:00,63.2,61.1,29.60,SW,233,26.5,26.5,93,0.05,RA,BKN,0.09,0.0,WeatherDisplay:10.37,2013-09-28 20:17:00,
2013-09-28 15:23:00,62.6,59.9,29.61,SW,223,27.6,27.6,91,0.09,RA,BKN,0.11,0.0,WeatherDisplay:10.37,2013-09-28 20:23:00,
2013-09-28 15:28:00,62.1,59.1,29.61,WSW,257,19.6,19.6,90,0.09,RA,BKN,0.11,0.0,WeatherDisplay:10.37,2013-09-28 20:28:00,
2013-09-28 15:33:00,61.5,58.2,29.62,SW,226,31.1,31.1,89,0.10,RA,BKN,0.12,0.0,WeatherDisplay:10.37,2013-09-28 20:33:00,
2013-09-28 15:38:00,60.5,56.9,29.64,WSW,240,34.5,34.5,88,0.11,RA,BKN,0.13,0.0,WeatherDisplay:10.37,2013-09-28 20:38:00,
2013-09-28 15:43:00,59.9,56.3,29.63,WSW,257,26.5,26.5,88,0.11,RA,BKN,0.14,0.0,WeatherDisplay:10.37,2013-09-28 20:43:00,
2013-09-28 15:48:00,59.5,55.9,29.63,WSW,247,19.6,19.6,88,0.12,RA,BKN,0.15,0.0,WeatherDisplay:10.37,2013-09-28 20:48:00,
2013-09-28 15:53:00,59.0,55.4,29.63,WSW,243,23.0,23.0,88,0.11,RA,BKN,0.15,0.0,WeatherDisplay:10.37,2013-09-28 20:53:00,
2013-09-28 15:59:00,58.6,55.4,29.64,West,261,21.9,21.9,89,0.11,OVC,BKN,0.15,0.0,WeatherDisplay:10.37,2013-09-28 20:59:00,
2013-09-28 16:04:00,58.1,54.9,29.65,West,261,28.8,28.8,89,0.11,RA,BKN,0.16,0.0,WeatherDisplay:10.37,2013-09-28 21:04:00,
2013-09-28 16:09:00,57.6,54.7,29.66,West,266,18.0,18.0,90,0.12,RA,BKN,0.17,0.0,WeatherDisplay:10.37,2013-09-28 21:09:00,
2013-09-28 16:14:00,57.3,54.7,29.67,WSW,250,20.7,20.7,91,0.13,RA,BKN,0.18,0.0,WeatherDisplay:10.37,2013-09-28 21:14:00,
2013-09-28 16:19:00,57.0,54.4,29.66,WSW,252,15.0,25.0,91,0.00,RA,BKN,0.19,0.0,WeatherDisplay:10.37,2013-09-28 21:19:00,
2013-09-28 16:25:00,56.7,54.1,29.67,WSW,252,19.6,19.6,91,0.08,RA,BKN,0.19,0.0,WeatherDisplay:10.37,2013-09-28 21:25:00,
2013-09-28 16:30:00,56.5,54.2,29.67,WSW,257,21.9,21.9,92,0.08,RA,BKN,0.20,0.0,WeatherDisplay:10.37,2013-09-28 21:30:00,
2013-09-28 16:35:00,56.2,53.9,29.67,West,261,16.1,16.1,92,0.08,RA,BKN,0.20,0.0,WeatherDisplay:10.37,2013-09-28 21:35:00,
2013-09-28 16:40:00,55.9,53.6,29.68,WSW,255,19.6,19.6,92,0.07,OVC,BKN,0.20,0.0,WeatherDisplay:10.37,2013-09-28 21:40:00,
2013-09-28 16:45:00,55.7,53.4,29.69,WSW,251,20.7,20.7,92,0.06,OVC,BKN,0.20,0.0,WeatherDisplay:10.37,2013-09-28 21:45:00,
2013-09-28 16:50:00,55.4,53.1,29.68,WSW,242,18.4,18.4,92,0.06,RA,BKN,0.21,0.0,WeatherDisplay:10.37,2013-09-28 21:50:00,
2013-09-28 16:55:00,55.3,53.0,29.69,WSW,246,19.6,19.6,92,0.06,RA,BKN,0.21,0.0,WeatherDisplay:10.37,2013-09-28 21:55:00,
2013-09-28 17:01:00,55.1,52.8,29.70,WSW,250,24.2,24.2,92,0.06,CLR,BKN,0.21,0.0,WeatherDisplay:10.37,2013-09-28 22:01:00,
2013-09-28 17:06:00,54.8,52.5,29.71,West,261,19.6,19.6,92,0.06,RA,BKN,0.22,0.0,WeatherDisplay:10.37,2013-09-28 22:06:00,
2013-09-28 17:11:00,54.5,52.2,29.70,West,266,20.7,20.7,92,0.05,RA,BKN,0.22,0.0,WeatherDisplay:10.37,2013-09-28 22:11:00,
2013-09-28 17:16:00,54.4,52.1,29.72,West,266,15.0,15.0,92,0.04,CLR,BKN,0.22,0.0,WeatherDisplay:10.37,2013-09-28 22:16:00,
2013-09-28 17:21:00,54.2,52.2,29.72,West,266,11.5,11.5,93,0.03,CLR,BKN,0.22,0.0,WeatherDisplay:10.37,2013-09-28 22:21:00,
2013-09-28 17:26:00,54.1,52.1,29.71,West,266,11.5,11.5,93,0.03,CLR,BKN,0.23,0.0,WeatherDisplay:10.37,2013-09-28 22:26:00,
2013-09-28 17:31:00,54.1,52.1,29.72,WSW,242,15.0,15.0,93,0.03,RA,BKN,0.23,0.0,WeatherDisplay:10.37,2013-09-28 22:31:00,
2013-09-28 17:37:00,53.9,51.9,29.73,West,261,9.2,9.2,93,0.03,CLR,BKN,0.23,0.0,WeatherDisplay:10.37,2013-09-28 22:37:00,
2013-09-28 17:42:00,53.9,52.2,29.73,WSW,244,10.4,10.4,94,0.03,CLR,BKN,0.23,0.0,WeatherDisplay:10.37,2013-09-28 22:42:00,
2013-09-28 17:47:00,53.9,52.2,29.73,West,266,13.8,13.8,94,0.03,CLR,BKN,0.23,0.0,WeatherDisplay:10.37,2013-09-28 22:47:00,
2013-09-28 17:52:00,53.9,51.3,29.72,WSW,242,12.7,12.7,91,0.02,CLR,BKN,0.23,0.0,WeatherDisplay:10.37,2013-09-28 22:52:00,
2013-09-28 17:57:00,53.9,52.2,29.72,WSW,254,12.7,12.7,94,0.02,CLR,BKN,0.23,0.0,WeatherDisplay:10.37,2013-09-28 22:57:00,
2013-09-28 18:02:00,53.9,52.5,29.73,WSW,245,17.0,17.0,95,0.02,CLR,BKN,0.23,0.0,WeatherDisplay:10.37,2013-09-28 23:02:00,
2013-09-28 18:07:00,53.9,52.5,29.73,WSW,245,11.5,11.5,95,0.01,CLR,BKN,0.23,0.0,WeatherDisplay:10.37,2013-09-28 23:07:00,
2013-09-28 18:12:00,53.9,52.5,29.73,WSW,254,11.5,11.5,95,0.01,CLR,BKN,0.23,0.0,WeatherDisplay:10.37,2013-09-28 23:12:00,
2013-09-28 18:18:00,53.9,52.5,29.74,WSW,255,11.5,11.5,95,0.01,CLR,BKN,0.23,0.0,WeatherDisplay:10.37,2013-09-28 23:18:00,
2013-09-28 18:23:00,53.8,52.4,29.74,SW,227,13.8,13.8,95,0.01,CLR,BKN,0.23,0.0,WeatherDisplay:10.37,2013-09-28 23:23:00,
2013-09-28 18:28:00,53.8,52.4,29.74,WSW,254,18.4,18.4,95,0.00,CLR,BKN,0.23,0.0,WeatherDisplay:10.37,2013-09-28 23:28:00,
2013-09-28 18:33:00,53.8,52.4,29.74,WSW,239,11.5,11.5,95,0.00,CLR,BKN,0.23,0.0,WeatherDisplay:10.37,2013-09-28 23:33:00,
2013-09-28 18:38:00,53.8,52.4,29.74,WSW,246,15.0,15.0,95,0.00,CLR,BKN,0.23,0.0,WeatherDisplay:10.37,2013-09-28 23:38:00,
2013-09-28 18:43:00,53.8,52.4,29.73,SW,236,14.0,14.0,95,0.00,CLR,BKN,0.23,0.0,WeatherDisplay:10.37,2013-09-28 23:43:00,
2013-09-28 18:48:00,53.6,52.2,29.74,SW,227,15.0,15.0,95,0.00,CLR,BKN,0.23,0.0,WeatherDisplay:10.37,2013-09-28 23:48:00,
2013-09-28 18:54:00,53.6,52.2,29.74,WSW,244,13.0,13.0,95,0.00,CLR,BKN,0.23,0.0,WeatherDisplay:10.37,2013-09-28 23:54:00,
2013-09-28 18:59:00,53.6,52.2,29.74,WSW,242,10.4,10.4,95,0.00,CLR,BKN,0.23,0.0,WeatherDisplay:10.37,2013-09-28 23:59:00,
2013-09-28 19:04:00,53.6,52.2,29.75,West,261,16.1,16.1,95,0.00,CLR,BKN,0.23,0.0,WeatherDisplay:10.37,2013-09-29 00:04:00,
2013-09-28 19:09:00,53.5,52.4,29.75,WSW,244,9.2,9.2,96,0.00,CLR,BKN,0.23,0.0,WeatherDisplay:10.37,2013-09-29 00:09:00,
2013-09-28 19:14:00,53.5,52.4,29.75,SW,231,13.8,13.8,96,0.00,CLR,BKN,0.23,0.0,WeatherDisplay:10.37,2013-09-29 00:14:00,
2013-09-28 19:19:00,53.5,52.4,29.75,WSW,237,11.5,11.5,96,0.00,CLR,BKN,0.23,0.0,WeatherDisplay:10.37,2013-09-29 00:19:00,
2013-09-28 19:24:00,53.5,52.4,29.76,SW,236,16.1,16.1,96,0.00,CLR,BKN,0.23,0.0,WeatherDisplay:10.37,2013-09-29 00:24:00,
2013-09-28 19:29:00,53.3,52.2,29.76,WSW,242,11.5,11.5,96,0.00,CLR,BKN,0.23,0.0,WeatherDisplay:10.37,2013-09-29 00:29:00,
2013-09-28 19:35:00,53.3,52.2,29.76,WSW,244,11.5,11.5,96,0.00,CLR,BKN,0.23,0.0,WeatherDisplay:10.37,2013-09-29 00:35:00,
2013-09-28 19:40:00,53.3,52.2,29.76,WSW,257,12.7,12.7,96,0.00,CLR,BKN,0.23,0.0,WeatherDisplay:10.37,2013-09-29 00:40:00,
2013-09-28 19:45:00,53.3,52.2,29.76,West,261,19.6,19.6,96,0.00,CLR,BKN,0.23,0.0,WeatherDisplay:10.37,2013-09-29 00:45:00,
2013-09-28 19:50:00,53.3,52.2,29.77,WSW,244,13.8,13.8,96,0.00,CLR,BKN,0.23,0.0,WeatherDisplay:10.37,2013-09-29 00:50:00,
2013-09-28 19:55:00,53.5,52.4,29.77,WSW,242,17.3,17.3,96,0.00,CLR,BKN,0.23,0.0,WeatherDisplay:10.37,2013-09-29 00:55:00,
2013-09-28 20:00:00,53.5,52.4,29.77,WSW,253,13.0,13.0,96,0.00,CLR,BKN,0.23,0.0,WeatherDisplay:10.37,2013-09-29 01:00:00,
2013-09-28 20:05:00,53.5,52.4,29.78,WSW,244,13.8,13.8,96,0.00,CLR,BKN,0.23,0.0,WeatherDisplay:10.37,2013-09-29 01:05:00,
2013-09-28 20:11:00,53.5,52.4,29.78,WSW,257,13.8,13.8,96,0.00,CLR,BKN,0.23,0.0,WeatherDisplay:10.37,2013-09-29 01:11:00,
2013-09-28 20:16:00,53.3,52.2,29.79,West,266,12.7,12.7,96,0.00,CLR,BKN,0.23,0.0,WeatherDisplay:10.37,2013-09-29 01:16:00,
2013-09-28 20:21:00,53.3,52.2,29.79,WSW,250,12.7,12.7,96,0.00,CLR,BKN,0.23,0.0,WeatherDisplay:10.37,2013-09-29 01:21:00,
2013-09-28 20:26:00,53.3,52.2,29.79,SW,232,16.1,16.1,96,0.00,CLR,BKN,0.23,0.0,WeatherDisplay:10.37,2013-09-29 01:26:00,
2013-09-28 20:31:00,53.2,52.1,29.79,WSW,246,15.0,15.0,96,0.00,CLR,BKN,0.23,0.0,WeatherDisplay:10.37,2013-09-29 01:31:00,
2013-09-28 20:36:00,53.2,52.1,29.79,WSW,252,10.4,10.4,96,0.00,CLR,BKN,0.23,0.0,WeatherDisplay:10.37,2013-09-29 01:36:00,
2013-09-28 20:41:00,53.1,52.0,29.80,West,261,13.0,13.0,96,0.00,CLR,BKN,0.23,0.0,WeatherDisplay:10.37,2013-09-29 01:41:00,
2013-09-28 20:46:00,53.1,52.0,29.79,WSW,254,12.7,12.7,96,0.00,CLR,BKN,0.23,0.0,WeatherDisplay:10.37,2013-09-29 01:46:00,
2013-09-28 20:52:00,52.9,51.8,29.80,WSW,247,13.8,13.8,96,0.00,CLR,BKN,0.23,0.0,WeatherDisplay:10.37,2013-09-29 01:52:00,
2013-09-28 20:57:00,52.9,51.8,29.80,WSW,249,11.5,11.5,96,0.00,CLR,BKN,0.23,0.0,WeatherDisplay:10.37,2013-09-29 01:57:00,
2013-09-28 21:02:00,52.9,51.8,29.80,West,266,12.7,12.7,96,0.00,CLR,BKN,0.23,0.0,WeatherDisplay:10.37,2013-09-29 02:02:00,
2013-09-28 21:07:00,52.8,51.7,29.80,West,276,15.0,15.0,96,0.00,CLR,BKN,0.23,0.0,WeatherDisplay:10.37,2013-09-29 02:07:00,
2013-09-28 21:13:00,52.8,51.7,29.80,West,261,15.0,15.0,96,0.00,CLR,BKN,0.23,0.0,WeatherDisplay:10.37,2013-09-29 02:13:00,
2013-09-28 21:18:00,52.8,51.7,29.81,WSW,248,14.0,14.0,96,0.00,CLR,BKN,0.23,0.0,WeatherDisplay:10.37,2013-09-29 02:18:00,
2013-09-28 21:23:00,52.6,51.5,29.81,WSW,255,11.5,11.5,96,0.00,CLR,BKN,0.23,0.0,WeatherDisplay:10.37,2013-09-29 02:23:00,
2013-09-28 21:28:00,52.6,51.5,29.81,WSW,257,11.5,11.5,96,0.00,CLR,BKN,0.23,0.0,WeatherDisplay:10.37,2013-09-29 02:28:00,
2013-09-28 21:34:00,52.6,51.5,29.82,West,266,12.7,12.7,96,0.00,CLR,BKN,0.23,0.0,WeatherDisplay:10.37,2013-09-29 02:34:00,
2013-09-28 21:39:00,52.6,51.5,29.82,WSW,244,15.0,15.0,96,0.00,CLR,BKN,0.23,0.0,WeatherDisplay:10.37,2013-09-29 02:39:00,
2013-09-28 21:44:00,52.6,51.5,29.82,West,266,13.8,13.8,96,0.00,CLR,BKN,0.23,0.0,WeatherDisplay:10.37,2013-09-29 02:44:00,
2013-09-28 21:49:00,52.5,51.4,29.82,WSW,250,18.4,18.4,96,0.00,CLR,BKN,0.23,0.0,WeatherDisplay:10.37,2013-09-29 02:49:00,
2013-09-28 21:54:00,52.5,51.4,29.82,WSW,244,18.4,18.4,96,0.00,CLR,BKN,0.23,0.0,WeatherDisplay:10.37,2013-09-29 02:54:00,
2013-09-28 21:59:00,52.5,51.4,29.82,WSW,247,13.8,13.8,96,0.00,CLR,BKN,0.23,0.0,WeatherDisplay:10.37,2013-09-29 02:59:00,
2013-09-28 22:04:00,52.5,51.4,29.82,West,280,16.1,16.1,96,0.00,CLR,BKN,0.23,0.0,WeatherDisplay:10.37,2013-09-29 03:04:00,
2013-09-28 22:09:00,52.3,51.2,29.83,West,264,9.0,17.0,96,0.00,CLR,BKN,0.23,0.0,WeatherDisplay:10.37,2013-09-29 03:09:00,
2013-09-28 22:15:00,52.3,51.2,29.83,WSW,250,13.8,13.8,96,0.00,CLR,BKN,0.23,0.0,WeatherDisplay:10.37,2013-09-29 03:15:00,
2013-09-28 22:20:00,52.2,51.1,29.83,West,277,12.7,12.7,96,0.00,CLR,BKN,0.23,0.0,WeatherDisplay:10.37,2013-09-29 03:20:00,
2013-09-28 22:25:00,52.2,51.1,29.83,WSW,244,12.0,12.0,96,0.00,CLR,BKN,0.23,0.0,WeatherDisplay:10.37,2013-09-29 03:25:00,
2013-09-28 22:30:00,52.0,50.9,29.84,West,261,11.5,11.5,96,0.00,CLR,BKN,0.23,0.0,WeatherDisplay:10.37,2013-09-29 03:30:00,
2013-09-28 22:35:00,51.9,50.8,29.84,WSW,257,19.6,19.6,96,0.00,CLR,BKN,0.23,0.0,WeatherDisplay:10.37,2013-09-29 03:35:00,
2013-09-28 22:41:00,51.9,50.8,29.84,West,275,13.8,13.8,96,0.00,CLR,BKN,0.23,0.0,WeatherDisplay:10.37,2013-09-29 03:41:00,
2013-09-28 22:46:00,51.7,50.3,29.84,WSW,242,12.7,12.7,95,0.00,CLR,BKN,0.23,0.0,WeatherDisplay:10.37,2013-09-29 03:46:00,
2013-09-28 22:51:00,51.6,50.2,29.85,West,266,11.5,11.5,95,0.00,CLR,BKN,0.23,0.0,WeatherDisplay:10.37,2013-09-29 03:51:00,
2013-09-28 22:56:00,51.4,50.0,29.85,WSW,250,12.0,12.0,95,0.00,CLR,BKN,0.23,0.0,WeatherDisplay:10.37,2013-09-29 03:56:00,
2013-09-28 23:01:00,51.4,50.0,29.85,West,266,11.5,11.5,95,0.00,CLR,BKN,0.23,0.0,WeatherDisplay:10.37,2013-09-29 04:01:00,
2013-09-28 23:02:00,51.4,50.0,29.85,West,266,11.5,11.5,95,0.00,CLR,BKN,0.23,0.0,WeatherDisplay:10.37,2013-09-29 04:02:00,
2013-09-28 23:03:00,51.4,50.0,29.85,WSW,250,12.7,12.7,95,0.00,CLR,BKN,0.23,0.0,WeatherDisplay:10.37,2013-09-29 04:03:00,
2013-09-28 23:08:00,51.3,49.9,29.85,West,279,10.4,10.4,95,0.00,CLR,BKN,0.23,0.0,WeatherDisplay:10.37,2013-09-29 04:08:00,
2013-09-28 23:13:00,51.1,49.7,29.85,West,266,11.5,11.5,95,0.00,CLR,BKN,0.23,0.0,WeatherDisplay:10.37,2013-09-29 04:13:00,
2013-09-28 23:18:00,51.1,49.7,29.86,West,266,10.4,10.4,95,0.00,CLR,BKN,0.23,0.0,WeatherDisplay:10.37,2013-09-29 04:18:00,
2013-09-28 23:23:00,51.0,49.6,29.86,West,266,11.5,11.5,95,0.00,CLR,BKN,0.23,0.0,WeatherDisplay:10.37,2013-09-29 04:23:00,
2013-09-28 23:28:00,50.8,49.4,29.86,WSW,244,9.2,9.2,95,0.00,CLR,BKN,0.23,0.0,WeatherDisplay:10.37,2013-09-29 04:28:00,
2013-09-28 23:34:00,50.7,49.0,29.86,WSW,254,10.4,10.4,94,0.00,CLR,BKN,0.23,0.0,WeatherDisplay:10.37,2013-09-29 04:34:00,
2013-09-28 23:39:00,50.5,48.8,29.86,West,266,7.0,7.0,94,0.00,CLR,BKN,0.23,0.0,WeatherDisplay:10.37,2013-09-29 04:39:00,
2013-09-28 23:44:00,50.4,48.7,29.86,WSW,257,6.9,6.9,94,0.00,CLR,BKN,0.23,0.0,WeatherDisplay:10.37,2013-09-29 04:44:00,
2013-09-28 23:49:00,50.2,48.5,29.86,West,266,8.1,8.1,94,0.00,CLR,BKN,0.23,0.0,WeatherDisplay:10.37,2013-09-29 04:49:00,
2013-09-28 23:54:00,50.1,48.2,29.86,WSW,258,6.0,8.0,93,0.00,CLR,BKN,0.23,0.0,WeatherDisplay:10.37,2013-09-29 04:54:00,